createdAt,value
2018-04-29T00:01:14.944Z,16.59
2018-04-29T00:03:42.371Z,16.69
2018-04-29T00:06:09.748Z,16.65
2018-04-29T00:08:37.244Z,16.65
2018-04-29T00:11:04.630Z,16.60
2018-04-29T00:13:32.142Z,16.53
2018-04-29T00:15:59.506Z,16.28
2018-04-29T00:18:26.923Z,16.47
2018-04-29T00:20:54.319Z,16.39
2018-04-29T00:23:21.694Z,16.43
2018-04-29T00:25:49.095Z,16.49
2018-04-29T00:28:16.465Z,16.48
2018-04-29T00:30:43.936Z,16.30
2018-04-29T00:33:11.342Z,16.28
2018-04-29T00:35:38.732Z,16.17
2018-04-29T00:38:06.272Z,16.28
2018-04-29T00:40:33.758Z,16.35
2018-04-29T00:43:01.133Z,16.43
2018-04-29T00:45:28.674Z,16.36
2018-04-29T00:47:56.152Z,16.38
2018-04-29T00:50:23.536Z,16.30
2018-04-29T00:52:50.918Z,16.23
2018-04-29T00:55:18.286Z,16.24
2018-04-29T00:57:45.758Z,16.24
2018-04-29T01:00:13.134Z,16.27
2018-04-29T01:02:40.670Z,16.31
2018-04-29T01:05:08.060Z,16.20
2018-04-29T01:07:35.529Z,16.23
2018-04-29T01:10:03.036Z,16.15
2018-04-29T01:12:30.452Z,16.24
2018-04-29T01:14:57.827Z,16.22
2018-04-29T01:17:25.193Z,16.11
2018-04-29T01:19:52.658Z,16.25
2018-04-29T01:22:20.029Z,16.32
2018-04-29T01:24:47.601Z,16.30
2018-04-29T01:27:15.004Z,16.18
2018-04-29T01:29:42.390Z,16.22
2018-04-29T01:32:09.764Z,16.14
2018-04-29T01:34:37.139Z,16.07
2018-04-29T01:37:04.521Z,15.94
2018-04-29T01:39:31.895Z,15.85
2018-04-29T01:41:59.278Z,15.89
2018-04-29T01:44:26.669Z,15.78
2018-04-29T01:46:54.043Z,15.66
2018-04-29T01:49:21.439Z,15.84
2018-04-29T01:51:48.812Z,15.89
2018-04-29T01:54:16.326Z,15.85
2018-04-29T01:56:43.718Z,15.87
2018-04-29T01:59:11.094Z,15.80
2018-04-29T02:01:38.493Z,15.81
2018-04-29T02:04:05.861Z,15.68
2018-04-29T02:06:33.286Z,15.63
2018-04-29T02:09:00.686Z,15.44
2018-04-29T02:11:28.076Z,15.52
2018-04-29T02:13:55.441Z,15.44
2018-04-29T02:16:22.815Z,15.37
2018-04-29T02:18:50.186Z,15.10
2018-04-29T02:21:17.575Z,15.06
2018-04-29T02:23:44.986Z,15.27
2018-04-29T02:26:12.343Z,15.35
2018-04-29T02:28:39.743Z,15.20
2018-04-29T02:31:07.314Z,15.21
2018-04-29T02:33:34.684Z,15.31
2018-04-29T02:36:02.080Z,15.33
2018-04-29T02:38:29.442Z,15.35
2018-04-29T02:40:56.836Z,15.30
2018-04-29T02:43:24.216Z,15.30
2018-04-29T02:45:51.594Z,15.27
2018-04-29T02:48:18.971Z,15.20
2018-04-29T02:50:46.363Z,15.21
2018-04-29T02:53:13.827Z,15.20
2018-04-29T02:55:41.712Z,15.15
2018-04-29T02:58:09.067Z,14.96
2018-04-29T03:00:36.455Z,14.91
2018-04-29T03:03:03.822Z,14.90
2018-04-29T03:05:31.204Z,14.94
2018-04-29T03:07:58.572Z,14.98
2018-04-29T03:10:25.968Z,14.98
2018-04-29T03:12:53.354Z,14.83
2018-04-29T03:15:20.725Z,14.75
2018-04-29T03:17:48.094Z,14.80
2018-04-29T03:20:15.515Z,14.89
2018-04-29T03:22:42.889Z,14.91
2018-04-29T03:25:10.275Z,14.81
2018-04-29T03:27:37.657Z,14.91
2018-04-29T03:30:05.051Z,14.93
2018-04-29T03:32:32.420Z,14.97
2018-04-29T03:34:59.806Z,14.96
2018-04-29T03:37:27.192Z,14.79
2018-04-29T03:39:54.567Z,14.92
2018-04-29T03:42:21.978Z,14.62
2018-04-29T03:44:49.347Z,14.71
2018-04-29T03:47:16.715Z,14.65
2018-04-29T03:49:44.088Z,14.66
2018-04-29T03:52:11.504Z,14.67
2018-04-29T03:54:38.887Z,14.64
2018-04-29T03:57:18.004Z,14.58
2018-04-29T03:59:57.097Z,14.69
2018-04-29T04:02:36.152Z,14.78
2018-04-29T04:05:03.498Z,14.83
2018-04-29T04:07:30.886Z,14.92
2018-04-29T04:09:58.265Z,14.94
2018-04-29T04:12:25.665Z,14.74
2018-04-29T04:14:53.049Z,14.68
2018-04-29T04:17:20.567Z,14.62
2018-04-29T04:19:47.961Z,14.53
2018-04-29T04:22:15.343Z,14.26
2018-04-29T04:24:42.874Z,14.41
2018-04-29T04:27:10.254Z,14.36
2018-04-29T04:29:37.642Z,14.32
2018-04-29T04:32:05.039Z,14.23
2018-04-29T04:34:32.425Z,14.19
2018-04-29T04:36:59.795Z,14.03
2018-04-29T04:39:27.194Z,13.87
2018-04-29T04:41:54.560Z,13.99
2018-04-29T04:44:21.932Z,14.04
2018-04-29T04:46:49.310Z,14.11
2018-04-29T04:49:16.697Z,14.24
2018-04-29T04:51:44.077Z,14.27
2018-04-29T04:54:11.460Z,14.39
2018-04-29T04:56:38.858Z,14.42
2018-04-29T04:59:06.233Z,14.59
2018-04-29T05:01:33.643Z,14.52
2018-04-29T05:04:00.998Z,14.49
2018-04-29T05:06:28.397Z,14.62
2018-04-29T05:08:55.767Z,14.73
2018-04-29T05:11:23.143Z,14.82
2018-04-29T05:13:50.521Z,14.60
2018-04-29T05:16:17.899Z,14.73
2018-04-29T05:18:45.282Z,14.72
2018-04-29T05:21:12.676Z,14.93
2018-04-29T05:23:40.067Z,14.99
2018-04-29T05:26:07.459Z,14.87
2018-04-29T05:28:34.869Z,14.86
2018-04-29T05:31:02.254Z,14.93
2018-04-29T05:33:29.618Z,15.30
2018-04-29T05:35:57.004Z,15.34
2018-04-29T05:38:24.413Z,15.42
2018-04-29T05:40:51.827Z,15.57
2018-04-29T05:43:19.201Z,15.64
2018-04-29T05:45:47.396Z,15.58
2018-04-29T05:48:14.761Z,15.49
2018-04-29T05:50:42.136Z,14.89
2018-04-29T05:53:09.523Z,14.66
2018-04-29T05:55:37.143Z,14.72
2018-04-29T05:58:04.518Z,14.94
2018-04-29T06:00:31.887Z,14.72
2018-04-29T06:02:59.271Z,15.10
2018-04-29T06:05:27.079Z,15.26
2018-04-29T06:07:54.471Z,15.23
2018-04-29T06:10:21.859Z,15.34
2018-04-29T06:12:49.250Z,15.42
2018-04-29T06:15:16.628Z,15.44
2018-04-29T06:17:44.071Z,15.51
2018-04-29T06:20:11.558Z,15.33
2018-04-29T06:22:38.944Z,15.18
2018-04-29T06:25:06.323Z,15.02
2018-04-29T06:27:33.727Z,15.03
2018-04-29T06:30:01.171Z,14.81
2018-04-29T06:32:28.721Z,15.01
2018-04-29T06:34:56.208Z,15.00
2018-04-29T06:37:23.573Z,14.74
2018-04-29T06:39:50.962Z,14.73
2018-04-29T06:42:18.375Z,14.76
2018-04-29T06:44:45.747Z,14.90
2018-04-29T06:47:13.163Z,14.79
2018-04-29T06:49:40.539Z,14.79
2018-04-29T06:52:07.906Z,14.76
2018-04-29T06:54:35.476Z,15.15
2018-04-29T06:57:02.854Z,15.22
2018-04-29T06:59:30.246Z,15.36
2018-04-29T07:01:57.626Z,15.24
2018-04-29T07:04:25.174Z,15.35
2018-04-29T07:06:52.619Z,15.56
2018-04-29T07:09:20.002Z,15.70
2018-04-29T07:11:47.392Z,15.83
2018-04-29T07:14:14.763Z,15.92
2018-04-29T07:16:42.199Z,16.16
2018-04-29T07:19:09.584Z,16.14
2018-04-29T07:21:36.956Z,16.19
2018-04-29T07:24:04.331Z,16.07
2018-04-29T07:26:31.716Z,16.10
2018-04-29T07:28:59.103Z,16.20
2018-04-29T07:31:26.487Z,16.43
2018-04-29T07:33:53.851Z,16.78
2018-04-29T07:36:21.250Z,16.86
2018-04-29T07:38:48.642Z,17.00
2018-04-29T07:41:16.015Z,17.20
2018-04-29T07:43:43.400Z,17.15
2018-04-29T07:46:10.774Z,17.00
2018-04-29T07:48:38.226Z,17.04
2018-04-29T07:51:05.685Z,17.30
2018-04-29T07:53:33.070Z,17.40
2018-04-29T07:56:00.444Z,17.61
2018-04-29T07:58:27.851Z,17.79
2018-04-29T08:00:55.258Z,17.86
2018-04-29T08:03:22.643Z,17.59
2018-04-29T08:05:50.028Z,17.78
2018-04-29T08:08:17.399Z,17.91
2018-04-29T08:10:44.771Z,18.04
2018-04-29T08:13:12.161Z,18.07
2018-04-29T08:15:39.546Z,18.09
2018-04-29T08:18:06.918Z,17.93
2018-04-29T08:20:34.294Z,17.73
2018-04-29T08:23:01.703Z,17.47
2018-04-29T08:25:29.083Z,17.38
2018-04-29T08:27:56.479Z,17.45
2018-04-29T08:30:23.855Z,17.28
2018-04-29T08:32:51.258Z,17.20
2018-04-29T08:35:18.635Z,17.24
2018-04-29T08:37:46.045Z,17.54
2018-04-29T08:40:13.628Z,17.83
2018-04-29T08:42:41.031Z,17.92
2018-04-29T08:45:08.399Z,17.73
2018-04-29T08:47:35.790Z,17.70
2018-04-29T08:50:03.149Z,17.78
2018-04-29T08:52:30.605Z,18.00
2018-04-29T08:54:58.125Z,18.24
2018-04-29T08:57:25.440Z,18.09
2018-04-29T08:59:52.831Z,18.20
2018-04-29T09:02:20.236Z,18.50
2018-04-29T09:04:47.610Z,18.61
2018-04-29T09:07:14.991Z,18.88
2018-04-29T09:09:42.370Z,18.98
2018-04-29T09:12:09.750Z,18.98
2018-04-29T09:14:37.127Z,18.72
2018-04-29T09:17:04.501Z,18.50
2018-04-29T09:19:31.885Z,18.31
2018-04-29T09:21:59.262Z,18.50
2018-04-29T09:24:26.648Z,18.77
2018-04-29T09:26:54.049Z,18.86
2018-04-29T09:29:21.442Z,19.12
2018-04-29T09:31:48.833Z,19.43
2018-04-29T09:34:16.223Z,19.59
2018-04-29T09:36:43.598Z,19.62
2018-04-29T09:39:11.486Z,19.72
2018-04-29T09:41:39.006Z,19.82
2018-04-29T09:44:06.393Z,19.81
2018-04-29T09:46:33.763Z,19.87
2018-04-29T09:49:01.157Z,20.00
2018-04-29T09:51:28.539Z,19.94
2018-04-29T09:53:55.914Z,20.09
2018-04-29T09:56:23.364Z,20.15
2018-04-29T09:58:50.737Z,20.23
2018-04-29T10:01:18.204Z,20.28
2018-04-29T10:03:47.264Z,20.42
2018-04-29T10:06:14.649Z,20.64
2018-04-29T10:08:42.028Z,20.99
2018-04-29T10:11:09.422Z,21.39
2018-04-29T10:13:36.795Z,21.42
2018-04-29T10:16:04.163Z,21.44
2018-04-29T10:18:31.551Z,21.51
2018-04-29T10:20:58.927Z,21.40
2018-04-29T10:23:26.309Z,21.51
2018-04-29T10:25:53.747Z,21.55
2018-04-29T10:28:21.136Z,21.73
2018-04-29T10:30:48.502Z,21.81
2018-04-29T10:33:15.886Z,21.89
2018-04-29T10:35:43.295Z,21.99
2018-04-29T10:38:10.727Z,21.86
2018-04-29T10:40:38.107Z,22.13
2018-04-29T10:43:05.486Z,22.29
2018-04-29T10:45:32.943Z,22.36
2018-04-29T10:48:00.333Z,22.48
2018-04-29T10:50:27.721Z,22.45
2018-04-29T10:52:55.215Z,22.30
2018-04-29T10:55:22.600Z,22.65
2018-04-29T10:57:50.054Z,22.77
2018-04-29T11:00:17.436Z,23.09
2018-04-29T11:02:44.826Z,22.91
2018-04-29T11:05:12.227Z,22.96
2018-04-29T11:07:39.678Z,22.98
2018-04-29T11:10:07.061Z,23.24
2018-04-29T11:12:34.446Z,23.52
2018-04-29T11:15:01.832Z,23.48
2018-04-29T11:17:29.258Z,23.71
2018-04-29T11:19:56.732Z,23.78
2018-04-29T11:22:24.166Z,23.66
2018-04-29T11:24:51.502Z,24.02
2018-04-29T11:27:18.873Z,24.48
2018-04-29T11:29:46.255Z,24.50
2018-04-29T11:32:15.556Z,24.75
2018-04-29T11:34:42.939Z,25.19
2018-04-29T11:37:10.344Z,25.12
2018-04-29T11:39:37.712Z,25.40
2018-04-29T11:42:05.107Z,25.66
2018-04-29T11:44:32.490Z,25.81
2018-04-29T11:46:59.875Z,25.68
2018-04-29T11:49:27.262Z,26.07
2018-04-29T11:51:54.651Z,26.14
2018-04-29T11:54:22.044Z,26.41
2018-04-29T11:56:49.512Z,26.70
2018-04-29T11:59:16.899Z,26.99
2018-04-29T12:01:44.306Z,27.40
2018-04-29T12:04:11.678Z,27.86
2018-04-29T12:06:39.070Z,27.94
2018-04-29T12:09:06.471Z,28.24
2018-04-29T12:11:33.846Z,28.25
2018-04-29T12:14:01.304Z,29.07
2018-04-29T12:16:28.743Z,29.50
2018-04-29T12:18:56.039Z,29.60
2018-04-29T12:21:23.441Z,29.66
2018-04-29T12:23:50.817Z,30.01
2018-04-29T12:26:18.204Z,30.61
2018-04-29T12:28:45.601Z,30.57
2018-04-29T12:31:13.033Z,30.65
2018-04-29T12:33:40.420Z,30.56
2018-04-29T12:36:07.843Z,30.74
2018-04-29T12:38:35.303Z,31.40
2018-04-29T12:41:02.708Z,31.82
2018-04-29T12:43:31.849Z,31.72
2018-04-29T12:45:59.369Z,32.31
2018-04-29T12:48:26.754Z,32.39
2018-04-29T12:50:54.160Z,32.75
2018-04-29T12:53:21.588Z,32.97
2018-04-29T12:55:48.984Z,32.90
2018-04-29T12:58:16.358Z,33.26
2018-04-29T13:00:43.884Z,33.16
2018-04-29T13:03:11.251Z,33.57
2018-04-29T13:05:38.682Z,33.07
2018-04-29T13:08:06.023Z,33.09
2018-04-29T13:10:33.442Z,33.51
2018-04-29T13:13:00.865Z,33.51
2018-04-29T13:15:28.254Z,34.17
2018-04-29T13:17:56.522Z,34.09
2018-04-29T13:20:23.951Z,33.83
2018-04-29T13:22:51.443Z,33.99
2018-04-29T13:25:18.855Z,34.44
2018-04-29T13:27:46.265Z,34.81
2018-04-29T13:30:13.735Z,34.53
2018-04-29T13:32:41.213Z,34.25
2018-04-29T13:35:08.624Z,34.83
2018-04-29T13:37:36.016Z,34.70
2018-04-29T13:40:03.457Z,34.51
2018-04-29T13:42:30.842Z,34.55
2018-04-29T13:44:58.224Z,34.84
2018-04-29T13:47:25.663Z,34.42
2018-04-29T13:49:53.086Z,34.04
2018-04-29T13:52:20.630Z,34.48
2018-04-29T13:54:48.249Z,34.70
2018-04-29T13:57:15.739Z,34.58
2018-04-29T13:59:43.123Z,35.13
2018-04-29T14:02:10.531Z,35.15
2018-04-29T14:04:37.884Z,35.21
2018-04-29T14:07:05.307Z,35.55
2018-04-29T14:09:32.761Z,35.68
2018-04-29T14:12:00.819Z,35.58
2018-04-29T14:14:28.344Z,35.20
2018-04-29T14:16:55.743Z,35.09
2018-04-29T14:19:23.141Z,34.56
2018-04-29T14:21:50.696Z,34.79
2018-04-29T14:24:18.147Z,35.00
2018-04-29T14:26:47.339Z,34.63
2018-04-29T14:29:14.973Z,34.34
2018-04-29T14:31:42.393Z,34.56
2018-04-29T14:34:09.822Z,34.90
2018-04-29T14:36:37.564Z,35.20
2018-04-29T14:39:04.920Z,35.16
2018-04-29T14:41:32.294Z,35.10
2018-04-29T14:43:59.684Z,34.66
2018-04-29T14:46:27.294Z,35.45
2018-04-29T14:48:54.675Z,35.20
2018-04-29T14:51:22.090Z,35.55
2018-04-29T14:53:49.642Z,35.45
2018-04-29T14:56:17.303Z,35.36
2018-04-29T14:58:44.683Z,35.54
2018-04-29T15:01:12.086Z,35.67
2018-04-29T15:03:39.745Z,35.23
2018-04-29T15:06:07.183Z,34.28
2018-04-29T15:08:34.559Z,33.20
2018-04-29T15:11:02.015Z,32.82
2018-04-29T15:13:29.411Z,32.18
2018-04-29T15:15:56.838Z,31.58
2018-04-29T15:18:35.976Z,31.34
2018-04-29T15:21:03.351Z,30.88
2018-04-29T15:23:30.743Z,30.81
2018-04-29T15:25:58.131Z,30.07
2018-04-29T15:28:25.535Z,29.84
2018-04-29T15:30:52.956Z,29.79
2018-04-29T15:33:20.353Z,29.59
2018-04-29T15:35:47.723Z,29.53
2018-04-29T15:38:16.174Z,29.54
2018-04-29T15:40:43.627Z,29.29
2018-04-29T15:43:10.942Z,29.24
2018-04-29T15:45:38.408Z,29.10
2018-04-29T15:48:05.818Z,29.05
2018-04-29T15:50:39.131Z,29.00
2018-04-29T15:53:06.764Z,28.97
2018-04-29T15:55:34.145Z,29.02
2018-04-29T15:58:01.691Z,28.73
2018-04-29T16:00:29.075Z,28.94
2018-04-29T16:02:56.517Z,29.22
2018-04-29T16:05:23.918Z,29.29
2018-04-29T16:07:51.295Z,29.01
2018-04-29T16:10:18.764Z,28.88
2018-04-29T16:12:46.156Z,28.93
2018-04-29T16:15:13.539Z,28.76
2018-04-29T16:17:40.942Z,28.82
2018-04-29T16:20:08.324Z,29.10
2018-04-29T16:22:35.764Z,29.27
2018-04-29T16:25:03.147Z,28.77
2018-04-29T16:27:30.611Z,28.92
2018-04-29T16:29:58.135Z,28.88
2018-04-29T16:32:25.737Z,29.09
2018-04-29T16:34:53.148Z,28.91
2018-04-29T16:37:20.528Z,28.53
2018-04-29T16:39:47.968Z,28.24
2018-04-29T16:42:15.456Z,27.79
2018-04-29T16:44:42.859Z,27.85
2018-04-29T16:47:10.244Z,27.69
2018-04-29T16:49:37.640Z,27.51
2018-04-29T16:52:05.022Z,27.59
2018-04-29T16:54:32.528Z,27.61
2018-04-29T16:56:59.953Z,27.64
2018-04-29T16:59:27.331Z,27.57
2018-04-29T17:01:54.747Z,27.49
2018-04-29T17:04:22.132Z,27.42
2018-04-29T17:06:49.539Z,27.31
2018-04-29T17:09:16.952Z,27.33
2018-04-29T17:11:49.338Z,27.43
2018-04-29T17:14:16.742Z,27.34
2018-04-29T17:16:44.146Z,27.36
2018-04-29T17:19:11.547Z,27.32
2018-04-29T17:21:38.906Z,27.26
2018-04-29T17:24:06.308Z,27.09
2018-04-29T17:26:33.684Z,27.07
2018-04-29T17:29:01.127Z,27.10
2018-04-29T17:31:28.620Z,27.04
2018-04-29T17:33:56.031Z,27.07
2018-04-29T17:36:23.436Z,27.00
2018-04-29T17:38:50.834Z,27.00
2018-04-29T17:41:18.215Z,26.88
2018-04-29T17:43:45.590Z,26.84
2018-04-29T17:46:13.025Z,26.67
2018-04-29T17:48:40.392Z,26.60
2018-04-29T17:51:07.796Z,26.45
2018-04-29T17:53:35.232Z,26.36
2018-04-29T17:56:02.742Z,26.27
2018-04-29T17:58:30.057Z,26.27
2018-04-29T18:00:57.456Z,26.25
2018-04-29T18:03:24.842Z,26.05
2018-04-29T18:18:55.161Z,26.03
2018-04-29T18:21:22.548Z,25.90
2018-04-29T18:23:49.955Z,25.80
2018-04-29T18:26:17.341Z,25.70
2018-04-29T18:28:44.734Z,25.56
2018-04-29T18:31:12.113Z,25.65
2018-04-29T18:33:39.505Z,25.62
2018-04-29T18:36:06.888Z,25.48
2018-04-29T18:38:34.424Z,25.36
2018-04-29T18:41:01.821Z,25.31
2018-04-29T18:43:29.183Z,25.16
2018-04-29T18:45:56.712Z,25.02
2018-04-29T18:48:24.065Z,25.08
2018-04-29T18:50:51.845Z,25.16
2018-04-29T18:53:19.033Z,25.10
2018-04-29T18:55:47.027Z,25.16
2018-04-29T18:58:14.392Z,25.13
2018-04-29T19:00:41.822Z,25.07
2018-04-29T19:03:09.197Z,25.08
2018-04-29T19:05:47.067Z,24.99
2018-04-29T19:08:14.435Z,24.93
2018-04-29T19:10:42.428Z,24.94
2018-04-29T19:13:10.301Z,24.94
2018-04-29T19:15:37.759Z,24.90
2018-04-29T19:18:05.167Z,24.85
2018-04-29T19:20:32.659Z,24.81
2018-04-29T19:23:00.080Z,24.70
2018-04-29T19:25:27.516Z,24.66
2018-04-29T19:27:55.084Z,24.59
2018-04-29T19:30:22.494Z,24.61
2018-04-29T19:32:49.997Z,24.49
2018-04-29T19:35:17.384Z,24.46
2018-04-29T19:37:44.770Z,24.40
2018-04-29T19:40:12.144Z,24.48
2018-04-29T19:42:39.527Z,24.45
2018-04-29T19:45:06.926Z,24.41
2018-04-29T19:47:34.466Z,24.36
2018-04-29T19:50:01.882Z,24.36
2018-04-29T19:52:29.389Z,24.32
2018-04-29T19:54:56.896Z,24.27
2018-04-29T19:57:24.314Z,24.13
2018-04-29T19:59:51.731Z,24.13
2018-04-29T20:02:19.209Z,24.14
2018-04-29T20:04:46.640Z,24.10
2018-04-29T20:07:14.124Z,24.03
2018-04-29T20:09:41.545Z,24.06
2018-04-29T20:12:08.989Z,23.93
2018-04-29T20:14:36.340Z,23.89
2018-04-29T20:17:03.707Z,23.83
2018-04-29T20:19:31.096Z,23.87
2018-04-29T20:21:59.362Z,23.81
2018-04-29T20:24:26.824Z,23.72
2018-04-29T20:26:54.890Z,23.74
2018-04-29T20:29:22.298Z,23.58
2018-04-29T20:31:49.671Z,23.60
2018-04-29T20:34:17.064Z,23.61
2018-04-29T20:36:44.446Z,23.56
2018-04-29T20:39:11.910Z,23.65
2018-04-29T20:41:39.389Z,23.64
2018-04-29T20:44:06.899Z,23.57
2018-04-29T20:46:34.286Z,23.52
2018-04-29T20:49:01.673Z,23.45
2018-04-29T20:51:29.102Z,23.44
2018-04-29T20:53:56.481Z,23.43
2018-04-29T20:56:23.942Z,23.34
2018-04-29T20:58:51.347Z,23.41
2018-04-29T21:01:18.724Z,23.28
2018-04-29T21:03:46.100Z,23.32
2018-04-29T21:06:13.490Z,23.25
2018-04-29T21:08:40.872Z,23.23
2018-04-29T21:11:08.252Z,23.00
2018-04-29T21:13:35.704Z,22.93
2018-04-29T21:16:03.054Z,23.04
2018-04-29T21:18:30.471Z,23.04
2018-04-29T21:20:57.843Z,22.93
2018-04-29T21:23:25.237Z,22.88
2018-04-29T21:25:52.616Z,22.96
2018-04-29T21:28:20.024Z,22.89
2018-04-29T21:30:47.407Z,22.71
2018-04-29T21:33:14.786Z,22.80
2018-04-29T21:35:42.394Z,22.78
2018-04-29T21:38:09.852Z,22.76
2018-04-29T21:40:37.225Z,22.63
2018-04-29T21:43:04.618Z,22.62
2018-04-29T21:45:31.996Z,22.64
2018-04-29T21:47:59.371Z,22.60
2018-04-29T21:50:26.754Z,22.61
2018-04-29T21:52:54.134Z,22.62
2018-04-29T21:55:26.462Z,22.52
2018-04-29T21:57:53.835Z,22.43
2018-04-29T22:00:21.292Z,22.50
2018-04-29T22:02:48.654Z,22.50
2018-04-29T22:05:16.065Z,22.47
2018-04-29T22:07:43.436Z,22.46
2018-04-29T22:10:10.822Z,22.33
2018-04-29T22:12:38.232Z,22.34
2018-04-29T22:15:05.608Z,22.35
2018-04-29T22:17:33.015Z,22.35
2018-04-29T22:20:00.424Z,22.35
2018-04-29T22:22:27.806Z,22.32
2018-04-29T22:24:55.196Z,22.29
2018-04-29T22:27:22.917Z,22.36
2018-04-29T22:29:50.596Z,22.28
2018-04-29T22:32:18.969Z,22.32
2018-04-29T22:34:46.676Z,22.28
2018-04-29T22:37:14.322Z,22.28
2018-04-29T22:39:42.090Z,22.20
2018-04-29T22:42:09.745Z,22.20
2018-04-29T22:44:37.497Z,22.28
2018-04-29T22:47:05.104Z,22.19
2018-04-29T22:49:32.704Z,22.30
2018-04-29T22:52:00.104Z,22.09
2018-04-29T22:54:27.496Z,22.17
2018-04-29T22:56:54.873Z,22.11
2018-04-29T22:59:22.276Z,22.12
2018-04-29T23:01:49.724Z,22.17
2018-04-29T23:04:17.121Z,22.12
2018-04-29T23:06:44.484Z,22.17
2018-04-29T23:09:11.881Z,22.10
2018-04-29T23:11:39.261Z,22.02
2018-04-29T23:14:06.644Z,22.09
2018-04-29T23:16:34.031Z,22.10
2018-04-29T23:19:01.402Z,22.07
2018-04-29T23:21:28.789Z,21.89
2018-04-29T23:23:56.180Z,21.95
2018-04-29T23:26:23.550Z,21.91
2018-04-29T23:28:50.922Z,21.76
2018-04-29T23:31:18.310Z,21.74
2018-04-29T23:33:45.682Z,21.55
2018-04-29T23:36:13.069Z,21.25
2018-04-29T23:38:40.435Z,21.25
2018-04-29T23:41:07.919Z,21.07
2018-04-29T23:43:35.214Z,20.85
2018-04-29T23:46:02.683Z,20.68
2018-04-29T23:48:30.054Z,20.65
2018-04-29T23:50:57.423Z,20.46
2018-04-29T23:53:24.791Z,20.20
2018-04-29T23:55:52.187Z,20.24
2018-04-29T23:58:19.617Z,20.07
